2018 Turkey Stuffer



Division Results for the F0110

Sort by  Gun Time Net Time
Div Place Place Bib First Last Sex Age Div City State Gun Time Net Time Pace Sex Place Sex Total Div Total
1 253 1368 Kori Groff F 10 F0110 Eugene OR 27:01.0 26:16.4 8:28 67 782 78
2 306 626 Kylie Leonard F 10 F0110 Creswell OR 28:44.1 27:34.6 8:53 95 782 78
3 313 202 Eva Cragun F 8 F0110 Eugene OR 29:45.8 27:41.8 8:55 98 782 78
4 385 391 Pepper Gottfried F 5 F0110 Pleasant Hill OR 32:31.3 29:11.4 9:24 133 782 78
5 413 910 Kelsie Raven F 9 F0110 Springfield OR 30:59.1 29:34.6 9:32 143 782 78
6 458 418 Kimsey Haaby F 7 F0110 Terrebone OR 30:41.4 30:16.9 9:45 167 782 78
7 501 945 Kai Romeo F 9 F0110 Boise ID 31:59.1 31:24.2 10:07 190 782 78
8 550 1249 Capri Betenson F 10 F0110 Eugene OR 32:50.0 32:35.9 10:30 217 782 78
9 564 1205 Halle Wing F 10 F0110 Springfield OR 34:10.1 32:58.4 10:37 227 782 78
10 606 1367 Evie Groff F 8 F0110 Eugene OR 35:52.7 34:41.2 11:10 251 782 78
11 632 141 Madison Cailteux F 10 F0110 Eugene OR 37:20.4 36:02.9 11:37 270 782 78
12 642 1059 McKenzie Speldrich F 10 F0110 Springfield OR 39:37.9 36:23.5 11:43 276 782 78
13 645 1186 Katherine Widenoja F 10 F0110 Springfield OR 39:45.1 36:31.9 11:46 278 782 78
14 651 240 Madelyn Del Castillo F 9 F0110 Springfield OR 39:38.2 36:56.0 11:54 281 782 78
15 665 1390 Kenley Menge F 6 F0110 Eugene OR 40:05.3 37:14.8 12:00 292 782 78
16 699 1008 Jaina Shakespear F 8 F0110 Eugene OR 38:52.4 38:01.8 12:15 311 782 78
17 704 455 Lizzie Hass F 8 F0110 Springfield OR 39:51.0 38:13.2 12:19 313 782 78
18 705 454 Katie Hass F 8 F0110 Springfield OR 39:51.3 38:14.5 12:19 314 782 78
19 715 269 Madeline Duringer F 8 F0110 Brownsville OR 41:39.9 38:46.5 12:29 320 782 78
20 721 228 Ava Dawolo F 6 F0110 Saint Paul MN 39:21.4 38:48.2 12:30 324 782 78
21 739 575 Ella Kempf F 9 F0110 Eugene OR 42:40.0 39:08.9 12:37 338 782 78
22 743 545 Sarah Jackson F 7 F0110 Eugene OR 39:43.1 39:12.9 12:38 342 782 78
23 794 643 Kimber Lindsey F 7 F0110 Springfield OR 43:48.5 41:36.2 13:24 378 782 78
24 796 649 Anabelle Lloyd F 9 F0110 Springfield OR 45:36.0 41:39.0 13:25 379 782 78
25 797 264 Jenna Dulac F 9 F0110 Walterville OR 45:36.0 41:39.4 13:25 380 782 78
26 818 341 Lillie Gardner F 7 F0110 Eugene OR 42:43.8 42:43.8 13:46 391 782 78
27 825 1358 Elizabeth Fellman F 10 F0110 Eugene OR 45:30.5 42:49.7 13:48 395 782 78
28 840 1180 Kailey White F 10 F0110 Eugene OR 47:01.2 43:37.7 14:03 403 782 78
29 855 1109 Savannah Thompson F 7 F0110 Eugene OR 45:30.8 44:48.5 14:26 411 782 78
30 859 48 Lauren Banks F 7 F0110 Eugene OR 47:13.1 44:55.3 14:28 415 782 78
31 860 1215 Sterling Wright F 1 F0110 Springfield OR 48:38.7 45:00.2 14:30 416 782 78
32 870 73 Alyssa Black F 6 F0110 Creswell OR 50:00.2 45:31.5 14:40 424 782 78
33 883 757 Stepheni Miller F 8 F0110 Eugene OR 46:39.9 46:10.7 14:52 431 782 78
34 898 78 Sarah Bloomer F 9 F0110 Eugene OR 48:48.6 47:16.4 15:13 440 782 78
35 905 183 Anna Cole F 9 F0110 Springfield OR 51:11.3 47:25.2 15:16 444 782 78
36 909 1172 Lorraine Westendorff F 10 F0110 Springfield OR 50:13.6 47:31.9 15:18 447 782 78
37 925 1194 Sophia Wilgus F 8 F0110 Wenatchee WA 50:11.3 48:09.1 15:30 459 782 78
38 936 111 Elisa Brock F 10 F0110 Springfield OR 52:51.1 48:44.1 15:42 468 782 78
39 937 114 Nora Brock F 3 F0110 Springfield OR 52:54.5 48:44.6 15:42 469 782 78
40 959 46 Jemma Banks F 4 F0110 Eugene OR 53:06.6 49:40.2 16:00 481 782 78
41 965 1239 Meadow Kitchens F 10 F0110 Coburg OR 50:39.3 49:46.3 16:02 484 782 78
42 967 273 Parker Eastman F 10 F0110 Eugene OR 50:40.3 49:47.1 16:02 486 782 78
43 974 476 Josie Heilman F 7 F0110 Portland OR 53:57.3 49:50.7 16:03 491 782 78
44 980 474 Ella Heilman F 4 F0110 Portland OR 54:05.2 49:58.5 16:06 496 782 78
45 989 338 Ava Gardner F 9 F0110 Eugene OR 50:14.6 50:14.6 16:11 503 782 78
46 998 724 Leia McPheeters-Geeting F 9 F0110 Springfield OR 54:35.1 50:24.7 16:14 511 782 78
47 1006 739 Larkin Miles F 2 F0110 Eugene OR 53:36.0 50:44.4 16:20 515 782 78
48 1013 1049 Lizzie Smith F 9 F0110 Eugene OR 52:57.2 51:02.0 16:26 521 782 78
49 1027 667 Hailey Magnus F 9 F0110 Springfield OR 54:17.9 51:42.7 16:39 531 782 78
50 1028 1312 Clara Smith F 4 F0110 Eugene OR 55:39.8 51:52.6 16:42 532 782 78
51 1044 725 Mira McPheeters-Geeting F 9 F0110 Springfield OR 56:29.0 52:20.3 16:51 541 782 78
52 1098 1401 Liliana Luis Vasquez F 9 F0110 Springfield OR 56:50.1 53:26.4 17:13 580 782 78
53 1114 1088 Lea Sweeney F 8 F0110 Bend OR 56:40.9 53:52.8 17:21 591 782 78
54 1117 145 Chloe Canfield F 7 F0110 Springfield OR 56:45.6 53:55.5 17:22 593 782 78
55 1170 1296 Theresa Kester F 6 F0110 Springfield OR 1:00:25.6 56:02.5 18:03 622 782 78
56 1171 1383 Alyson Madsen F 9 F0110 Springfield OR 59:50.1 56:08.9 18:05 623 782 78
57 1177 792 Abagail Nelson F 10 F0110 Springfield OR 1:01:01.6 56:23.7 18:10 627 782 78
58 1178 1381 Anna Madsen F 6 F0110 Springfield OR 1:00:04.8 56:24.1 18:10 628 782 78
59 1199 856 Amelie Perrone F 4 F0110 Monroe WA 1:01:47.7 57:36.7 18:33 642 782 78
60 1206 361 Aevan Girvan F 9 F0110 Eugene OR 1:00:12.2 57:49.8 18:37 648 782 78
61 1218 262 Kylie Dubell F 10 F0110 Springfield OR 1:00:19.2 58:42.2 18:54 656 782 78
62 1235 981 Evelyn Scheidt F 6 F0110 Springfield OR 1:02:12.5 1:00:17.4 19:25 668 782 78
63 1252 1340 Kinzy Jackson F 9 F0110 Springfield OR 1:05:46.5 1:03:15.0 20:22 676 782 78
64 1268 1125 Maleena Van Dyke F 9 F0110 Springfield OR 1:09:18.3 1:09:18.3 22:19 689 782 78

Division Results for the F1114

Sort by  Gun Time Net Time
Div Place Place Bib First Last Sex Age Div City State Gun Time Net Time Pace Sex Place Sex Total Div Total
1 39 1327 Cameron Gupta F 13 F1114 Springfield OR 19:38.9 19:35.0 6:19 5 782 71
2 159 1063 Eleanor Sperry F 13 F1114 Springfield OR 24:15.3 23:59.3 7:44 32 782 71
3 160 1112 Catherine Touchette F 14 F1114 Eugene OR 24:06.9 24:00.4 7:44 33 782 71
4 162 13 Ailah Altemus F 14 F1114 Oakridge OR 24:39.9 24:03.0 7:45 34 782 71
5 182 1360 Ellie Epperson F 11 F1114 Pleasant Hill OR 24:46.3 24:36.0 7:56 42 782 71
6 190 491 Kenna Higgins F 11 F1114 Eugene OR 24:59.2 24:46.3 7:59 45 782 71
7 194 1344 Peyton Kendall F 14 F1114 Eugene OR 24:58.7 24:50.9 8:00 47 782 71
8 215 909 Breanna Raven F 13 F1114 Springfield OR 25:42.4 25:23.1 8:11 53 782 71
9 255 946 Vita Romeo F 11 F1114 Boise ID 27:00.1 26:25.5 8:31 68 782 71
10 258 177 Bethany Cochran F 12 F1114 Eugene OR 27:35.2 26:28.3 8:32 69 782 71
11 280 383 Ava Gore F 14 F1114 Springfield OR 27:26.5 27:10.8 8:45 79 782 71
12 293 515 Royce Huntoon F 11 F1114 Springfield OR 28:02.9 27:22.3 8:49 87 782 71
13 295 1251 Page Betenson F 14 F1114 Eugene OR 27:39.0 27:25.0 8:50 88 782 71
14 305 1250 Nora Betenson F 12 F1114 Eugene OR 28:00.6 27:34.0 8:53 94 782 71
15 309 1265 Madison Irvin F 12 F1114 Springfield OR 27:56.0 27:37.0 8:54 96 782 71
16 321 624 Karinna Leonard F 14 F1114 Creswell OR 29:08.0 27:58.1 9:01 102 782 71
17 323 151 Verena Cary F 12 F1114 Eugene OR 28:47.3 28:02.4 9:02 103 782 71
18 342 793 Cadence Nelson F 14 F1114 Springfield OR 31:10.6 28:24.3 9:09 110 782 71
19 344 1416 Abbey Curtis F 14 F1114 Springfield OR 29:07.9 28:25.3 9:09 112 782 71
20 364 753 Katie Miller F 13 F1114 Eugene OR 29:18.4 28:46.8 9:16 124 782 71
21 401 1179 Stephanie White F 13 F1114 Vida OR 30:09.9 29:24.7 9:28 139 782 71
22 403 243 Lexi Deskin F 13 F1114 Springfield OR 30:51.8 29:28.1 9:30 140 782 71
23 406 231 Aubrey Dawson F 11 F1114 Springfield OR 30:30.3 29:28.4 9:30 142 782 71
24 424 557 Lora Johnson F 12 F1114 Halsey OR 31:47.4 29:43.0 9:34 150 782 71
25 433 26 Chloe Arbow F 13 F1114 Beaverton OR 30:58.4 29:51.9 9:37 153 782 71
26 478 488 Camille Hicks F 13 F1114 Springfield OR 31:34.0 30:39.1 9:52 180 782 71
27 481 407 Kahlan Green F 13 F1114 Springfield OR 33:40.9 30:43.1 9:54 181 782 71
28 507 67 Makenzie Benvie F 11 F1114 Springfield OR 33:05.3 31:41.9 10:13 193 782 71
29 559 853 Iryss Perez F 14 F1114 Springfield OR 33:22.9 32:52.5 10:35 223 782 71
30 576 1418 Emily Waddell F 12 F1114 Springfield OR 34:54.7 33:43.2 10:52 236 782 71
31 589 1108 Hannah Thompson F 13 F1114 Creswell OR 34:58.0 34:05.2 10:59 241 782 71
32 612 797 Tenaya Nelson F 11 F1114 Springfield OR 37:44.3 34:59.4 11:16 257 782 71
33 617 192 Jaden Conklin F 12 F1114 Springfield OR 36:18.6 35:16.1 11:22 260 782 71
34 638 366 Elizabeth Given F 11 F1114 Springfield OR 40:47.0 36:17.0 11:41 274 782 71
35 660 1009 Samantha Shakespear F 13 F1114 Eugene OR 38:00.5 37:11.7 11:59 288 782 71
36 702 203 Jenni Cragun F 11 F1114 Eugene OR 41:38.6 38:10.6 12:18 312 782 71
37 729 1041 Brynn Smith F 12 F1114 Eugene OR 39:42.7 38:59.0 12:33 330 782 71
38 730 1046 Isabelle Smith F 11 F1114 Eugene OR 39:42.7 38:59.5 12:34 331 782 71
39 746 24 Ainsley Arbow F 11 F1114 Beaverton OR 40:38.4 39:31.4 12:44 345 782 71
40 752 892 Kelsey Pruitt F 14 F1114 Eugene OR 40:22.7 39:39.7 12:46 348 782 71
41 761 1061 Pam Spencer F 11 F1114 Creswell OR 41:13.5 40:19.9 12:59 353 782 71
42 776 39 Colleen Pat Bailey F 14 F1114 Springfield OR 42:01.7 41:02.5 13:13 363 782 71
43 781 1142 Heather Waddell F 11 F1114 Springfield OR 43:55.3 41:18.8 13:18 366 782 71
44 787 975 Kaylee Schaaf F 13 F1114 Springfield OR 41:48.0 41:26.2 13:21 372 782 71
45 788 976 Madison Schaaf F 11 F1114 Springfield OR 41:48.3 41:27.2 13:21 373 782 71
46 811 65 Allison Bennett-Burbee F 14 F1114 Pleasant Hill OR 45:53.8 42:03.3 13:33 389 782 71
47 873 662 Jazmin Lyons F 12 F1114 Springfield OR 49:57.2 45:32.3 14:40 425 782 71
48 897 1246 Doveen Acosta F 12 F1114 Springfield OR 51:02.6 47:15.0 15:13 439 782 71
49 902 395 Clara Gramzow F 11 F1114 Eugene OR 49:34.8 47:24.3 15:16 441 782 71
50 906 699 Kassidy Matthews F 11 F1114 Springfield OR 51:11.8 47:26.6 15:17 445 782 71
51 911 1082 Kaci Sumnall F 14 F1114 Springfield OR 49:05.9 47:36.8 15:20 449 782 71
52 913 487 Gracie Hester F 12 F1114 Springfield OR 49:59.7 47:42.8 15:22 450 782 71
53 927 1018 Lily Silberstein F 12 F1114 Eugene OR 48:28.8 48:11.5 15:31 461 782 71
54 985 304 Olivia Feist F 14 F1114 Eugene OR 50:12.7 50:10.6 16:10 499 782 71
55 986 1031 Kylee Smith F 13 F1114 Cottage Grove OR 50:12.7 50:11.1 16:10 500 782 71
56 1016 765 Madison Monteith F 13 F1114 Lowell OR 53:55.1 51:05.8 16:27 522 782 71
57 1017 736 Abigail Mikulich F 14 F1114 Lowell OR 53:54.4 51:06.0 16:27 523 782 71
58 1067 723 Adia McPheeters-Geeting F 11 F1114 Springfield OR 56:52.0 52:43.7 16:59 558 782 71
59 1076 524 Alex Hutchens F 12 F1114 Eugene OR 53:42.0 52:51.3 17:01 565 782 71
60 1092 1038 Abigail Smith F 13 F1114 Eugene OR 55:04.6 53:09.4 17:07 576 782 71
61 1096 1396 Rylee Bagwell F 13 F1114 Springfield OR 54:08.2 53:23.0 17:11 579 782 71
62 1158 1078 Katie Sullivan F 11 F1114 Eugene OR 56:50.8 55:18.5 17:49 613 782 71
63 1164 405 Jennifer Green F 11 F1114 Springfield OR 58:36.1 55:50.9 17:59 616 782 71
64 1188 365 Alley Given F 13 F1114 Springfield OR 1:01:18.6 56:47.6 18:17 634 782 71
65 1267 1127 Samarah Van Dyke F 12 F1114 Springfield OR 1:09:17.3 1:09:17.3 22:19 688 782 71
66 1276 12 Huda Altal F 11 F1114 Springfield OR 1:20:58.4 1:17:44.0 25:02 695 782 71

Division Results for the F1519

Sort by  Gun Time Net Time
Div Place Place Bib First Last Sex Age Div City State Gun Time Net Time Pace Sex Place Sex Total Div Total
1 38 1228 Shayla Solomon F 19 F1519 Junction City OR 19:18.4 19:15.5 6:12 4 782 46
2 61 908 Abigail Raven F 15 F1519 Springfield OR 20:55.1 20:43.6 6:41 10 782 46
3 65 1300 Daelyn Wilde F 18 F1519 Pleasant Hill OR 21:00.8 20:51.3 6:43 11 782 46
4 80 314 Olivia Flack F 16 F1519 La Pine OR 21:34.8 21:19.1 6:52 14 782 46
5 84 1139 Melina Villegas F 16 F1519 Springfield OR 21:31.5 21:28.1 6:55 15 782 46
6 103 321 Lauren Foster F 15 F1519 Eugene OR 22:13.2 22:09.1 7:08 18 782 46
7 121 1062 Arwen Sperry F 15 F1519 Springfield OR 22:58.7 22:42.8 7:19 21 782 46
8 140 162 Katie Chapman F 15 F1519 Lowell OR 23:50.9 23:23.8 7:32 24 782 46
9 144 1158 Marcy Weiss F 17 F1519 Springfield OR 24:01.3 23:26.3 7:33 26 782 46
10 166 118 Rhianna Brown F 17 F1519 Springfield OR 24:41.1 24:08.2 7:47 36 782 46
11 196 896 Nora Quick F 19 F1519 Eugene OR 26:19.2 24:52.0 8:01 48 782 46
12 264 335 Anya Gallup F 19 F1519 Springfield OR 27:45.9 26:38.1 8:35 70 782 46
13 272 1032 Lexi Smith F 19 F1519 Creswell OR 27:30.1 26:49.9 8:39 76 782 46
14 292 8 Maddie Alansky F 15 F1519 Veneta OR 27:57.3 27:22.2 8:49 86 782 46
15 296 1374 McKayla Webb F 18 F1519 Eugene OR 28:40.1 27:25.1 8:50 89 782 46
16 315 730 Liliane Menezes F 19 F1519 Keizer OR 28:22.8 27:43.6 8:56 99 782 46
17 359 306 Judith Fernandez F 16 F1519 Springfield OR 28:56.9 28:37.5 9:13 121 782 46
18 375 746 Megan Miller F 15 F1519 Springfield OR 29:36.2 29:02.7 9:21 129 782 46
19 389 1355 Madison Fisher F 19 F1519 Eugene OR 29:51.9 29:12.6 9:25 134 782 46
20 422 554 Emma Johnson F 16 F1519 Halsey OR 31:47.5 29:42.2 9:34 149 782 46
21 427 696 Alyssa Matthews F 16 F1519 Springfield OR 30:17.6 29:44.7 9:35 151 782 46
22 566 1375 Alyssa Kuipers F 18 F1519 Eugene OR 34:15.4 33:00.2 10:38 229 782 46
23 579 448 Abigail Hass F 15 F1519 Eugene OR 35:50.0 33:46.2 10:53 237 782 46
24 611 1107 Grace Thompson F 15 F1519 Creswell OR 35:51.4 34:57.0 11:15 256 782 46
25 616 582 Cheyanne Kester F 17 F1519 Springfield OR 37:24.8 35:12.6 11:20 259 782 46
26 630 579 Chelsea Kendrick F 15 F1519 Sprinfield OR 39:28.2 35:54.4 11:34 268 782 46
27 690 727 Katelin Means F 18 F1519 Springfield OR 41:54.2 37:51.3 12:12 306 782 46
28 726 1027 Georgia Smith F 19 F1519 Albany OR 39:41.9 38:57.6 12:33 328 782 46
29 740 544 Nora Jackson F 17 F1519 Eugene OR 39:41.4 39:10.5 12:37 339 782 46
30 783 844 Jennika Paulson F 19 F1519 Eugene OR 42:42.7 41:20.5 13:19 368 782 46
31 793 775 Hannah Morse F 18 F1519 Springfield OR 42:45.1 41:33.3 13:23 377 782 46
32 926 137 Sarah Butruille F 16 F1519 Leavenworth WA 50:11.5 48:10.2 15:31 460 782 46
33 945 691 Gabby Martinez F 17 F1519 Junction City OR 51:31.9 49:02.9 15:48 471 782 46
34 946 893 Jessica Puderbaugh F 17 F1519 Junction City OR 51:31.4 49:03.1 15:48 472 782 46
35 947 175 Katie Clouston F 17 F1519 Junction City OR 51:33.8 49:03.5 15:48 473 782 46
36 1045 461 Candace Hastings F 17 F1519 Sutherlin OR 57:34.7 52:21.1 16:52 542 782 46
37 1051 585 Taja Kester F 15 F1519 Springfield OR 56:50.9 52:27.9 16:54 547 782 46
38 1056 356 Sophi Gilday F 17 F1519 Springfield OR 52:33.8 52:33.8 16:56 551 782 46
39 1126 941 Aubrey Rogers F 19 F1519 Springfield OR 58:02.2 54:12.6 17:27 596 782 46
40 1148 122 Ronni Bryant F 15 F1519 Payette ID 57:17.9 54:52.1 17:40 606 782 46
41 1167 258 Lina Droste F 17 F1519 Beaverton OR 58:26.7 55:55.0 18:00 619 782 46
42 1169 832 Sasha Palmer F 16 F1519 Springfield OR 58:24.8 55:59.4 18:02 621 782 46
43 1198 1147 Jayley Ward F 16 F1519 Springfield OR 1:01:28.6 57:35.9 18:33 641 782 46
44 1223 1222 Cidnie Young F 18 F1519 Chino Hills CA 1:02:08.2 59:05.0 19:02 660 782 46
45 1230 1161 Lachrisha Welch - Fuller F 16 F1519 Eugene EU 1:00:35.4 59:48.0 19:15 664 782 46

Division Results for the F2024

Sort by  Gun Time Net Time
Div Place Place Bib First Last Sex Age Div City State Gun Time Net Time Pace Sex Place Sex Total Div Total
1 48 19 Monica Anderson F 23 F2024 Coburg OR 20:21.6 20:04.7 6:28 7 782 55
2 49 288 Hannah Eshelman F 22 F2024 Eugene OR 20:10.7 20:08.6 6:29 8 782 55
3 149 99 Emma Boys F 22 F2024 Creswell OR 23:52.6 23:44.6 7:39 28 782 55
4 188 1201 Rheanna Williams F 24 F2024 Portland OR 28:41.6 24:45.1 7:58 44 782 55
5 225 479 Katie Heldt F 23 F2024 Eugene OR 26:57.0 25:43.5 8:17 57 782 55
6 226 987 Keri Schwarz F 23 F2024 Springfield OR 26:59.3 25:43.6 8:17 58 782 55
7 242 1003 McKenzie Settelmeyer F 24 F2024 Cottage Grove OR 26:38.8 25:56.9 8:22 62 782 55
8 286 780 Nicole Mowery F 21 F2024 Eugene OR 28:03.3 27:14.5 8:47 82 782 55
9 331 550 Katelyn Jacobson F 20 F2024 Springfield OR 29:21.9 28:13.1 9:05 106 782 55
10 392 874 Paris Piva F 24 F2024 Springfield OR 30:37.8 29:16.0 9:26 135 782 55
11 434 76 Nicole Blanco-Mills F 24 F2024 Eugene OR 30:42.1 29:52.2 9:37 154 782 55
12 462 562 Nicole Johnson F 20 F2024 Eugene OR 31:15.0 30:20.0 9:46 171 782 55
13 483 706 Blake McKay F 20 F2024 Springfield OR 34:44.0 30:44.5 9:54 182 782 55
14 510 538 Hannah Jablonski F 23 F2024 Eugene OR 32:34.8 31:45.5 10:14 195 782 55
15 575 69 Emma Beuerman F 23 F2024 Eugene OR 34:29.3 33:40.8 10:51 235 782 55
16 602 589 Sommer Kirk F 24 F2024 Hillsboro OR 35:12.2 34:26.2 11:06 249 782 55
17 631 580 Hailey Kendrick F 20 F2024 Sprinfield OR 39:29.6 35:57.1 11:35 269 782 55
18 652 1354 Nicole Lewis F 21 F2024 Portland OR 38:07.9 36:59.5 11:55 282 782 55
19 678 441 Lanie Harmon F 20 F2024 Springfield OR 40:58.0 37:37.4 12:07 300 782 55
20 680 346 Sera Gearhart F 21 F2024 Portland OR 38:53.5 37:38.8 12:08 302 782 55
21 681 345 Anya Gearhart F 24 F2024 Portland OR 38:55.5 37:39.1 12:08 303 782 55
22 692 846 Kaylee Peck F 24 F2024 Terrebonne OR 39:30.3 37:54.7 12:13 307 782 55
23 693 687 Smith Marlee F 24 F2024 Springfield OR 39:30.4 37:55.6 12:13 308 782 55
24 711 776 Jolene Morse F 24 F2024 Springfield OR 39:51.0 38:38.6 12:27 318 782 55
25 733 504 Roxi Holt F 21 F2024 Springfield OR 41:21.6 39:03.0 12:35 333 782 55
26 738 503 Micaela Holt F 23 F2024 Springfield OR 41:27.7 39:08.8 12:36 337 782 55
27 760 1301 Nicole Livering F 23 F2024 Springfield OR 40:56.5 40:09.7 12:56 352 782 55
28 762 392 Julia Grabhorn F 24 F2024 Eugene OR 42:01.2 40:21.2 13:00 354 782 55
29 766 58 Makyla Bates F 21 F2024 Springfield OR 42:05.1 40:24.1 13:01 358 782 55
30 831 1281 Shyann Watson F 22 F2024 Eugene OR 43:29.6 43:08.4 13:54 397 782 55
31 834 1220 Sara York F 24 F2024 Halsey OR 45:30.2 43:15.5 13:56 400 782 55
32 856 1318 Alana Gwilym-Tso F 21 F2024 Eugene OR 48:46.5 44:48.8 14:26 412 782 55
33 869 845 Marika Paulson F 20 F2024 Eugene OR 46:52.5 45:29.3 14:39 423 782 55
34 966 481 Emily Hendrickson F 23 F2024 Springfield OR 53:47.7 49:46.8 16:02 485 782 55
35 970 620 Erika Lee F 23 F2024 Springfield OR 52:14.2 49:50.1 16:03 488 782 55
36 990 1163 Shelby Wendell F 24 F2024 Junction City OR 52:02.5 50:15.4 16:11 504 782 55
37 994 218 Kelsie Daggett F 23 F2024 Springfield OR 52:16.6 50:20.2 16:13 508 782 55
38 995 735 Ashley Metteer F 23 F2024 Walterville OR 52:18.2 50:21.4 16:13 509 782 55
39 1026 4 Hailey Aitken F 22 F2024 Springfield OR 53:38.0 51:42.5 16:39 530 782 55
40 1053 355 Lauren Gilday F 23 F2024 Springfield OR 54:22.0 52:30.5 16:55 548 782 55
41 1093 1100 Melissa Teter F 20 F2024 Eugene OR 56:10.5 53:13.9 17:09 577 782 55
42 1099 493 Sarah Hoechlin F 21 F2024 Corvallis OR 55:55.9 53:29.6 17:14 581 782 55
43 1113 1402 Jessica Clacanas F 20 F2024 Springfield OR 57:14.1 53:50.7 17:20 590 782 55
44 1165 410 Shelby Green F 20 F2024 Springfield OR 58:36.1 55:51.1 17:59 617 782 55
45 1175 863 Krystal Petko F 23 F2024 Springfield OR 1:01:19.9 56:21.0 18:09 625 782 55
46 1189 708 Megan McKay F 23 F2024 Springfield OR 57:17.1 56:48.6 18:18 635 782 55
47 1190 922 Jeannette Richardson F 20 F2024 Lowell OR 1:00:18.7 56:49.2 18:18 636 782 55
48 1214 858 Sara Perry F 20 F2024 Halsey OR 1:01:11.2 58:39.4 18:53 652 782 55
49 1215 1257 Cassie Fountain F 24 F2024 Springfield OR 1:00:29.1 58:39.9 18:53 653 782 55
50 1271 1174 Sierra Westlake F 24 F2024 Dexter OR 1:20:58.8 1:16:26.0 24:37 692 782 55

Division Results for the F2529

Sort by  Gun Time Net Time
Div Place Place Bib First Last Sex Age Div City State Gun Time Net Time Pace Sex Place Sex Total Div Total
1 11 904 Jenn Randall F 27 F2529 Bend OR 16:49.0 16:48.3 5:25 1 782 63
2 33 860 Brittany Petersen F 29 F2529 Springfield OR 19:12.5 19:01.7 6:08 2 782 63
3 51 386 Heidi Gori F 27 F2529 Springfield OR 20:25.2 20:13.8 6:31 9 782 63
4 77 777 Alia Mowery F 25 F2529 Eugene OR 21:23.2 21:04.6 6:48 13 782 63
5 218 852 Ana Pena F 25 F2529 Portland OR 25:45.1 25:26.4 8:12 54 782 63
6 265 683 Gaby Marichal F 28 F2529 Eugene OR 28:17.7 26:39.1 8:35 71 782 63
7 278 117 Kaitlin Richards F 28 F2529 Springfield OR 28:51.2 27:06.1 8:44 78 782 63
8 287 1204 Nora Wilson F 25 F2529 Vancouver WA 28:03.6 27:15.2 8:47 83 782 63
9 291 82 Lindsay Boeshans F 27 F2529 Springfield OR 27:57.8 27:19.5 8:48 85 782 63
10 297 540 Danielle Jackson F 28 F2529 Eugene OR 27:55.1 27:25.6 8:50 90 782 63
11 303 759 Leah Milne Wright F 29 F2529 Eugene OR 27:58.6 27:33.5 8:53 93 782 63
12 319 1408 Bree Nicollelo F 25 F2529 Eugene OR 30:24.6 27:55.5 9:00 100 782 63
13 320 1411 Leilagh Boyle F 27 F2529 Eugene OR 30:24.1 27:55.6 9:00 101 782 63
14 366 1410 Chelsea Lauiguet F 27 F2529 Eugene OR 31:19.9 28:51.7 9:18 125 782 63
15 374 153 Jennifer Caughlin F 28 F2529 Springfield OR 29:22.0 29:01.7 9:21 128 782 63
16 421 1047 Jordan Smith F 25 F2529 Sherwood OR 30:22.9 29:42.0 9:34 148 782 63
17 455 1270 Laura Marshall F 28 F2529 Eugene OR 35:28.8 30:15.3 9:45 164 782 63
18 464 244 Kendra Desler F 28 F2529 Los Angeles CA 31:25.5 30:22.4 9:47 172 782 63
19 465 360 Olivia Girod F 27 F2529 Beaverotn OR 31:26.6 30:22.8 9:47 173 782 63
20 466 641 Monica Lindly F 27 F2529 Portland OR 31:26.7 30:22.9 9:47 174 782 63
21 469 1030 Kayla Smith F 26 F2529 Springfield OR 31:53.1 30:27.3 9:49 177 782 63
22 508 68 Shayla Benvie F 27 F2529 Springfield OR 33:05.3 31:42.5 10:13 194 782 63
23 518 1150 Morgan Ward F 27 F2529 North Bend OR 33:52.4 31:53.7 10:16 200 782 63
24 552 686 Katlin Marks F 27 F2529 Springfield OR 34:08.5 32:43.2 10:32 218 782 63
25 557 15 Allie Anderson F 29 F2529 Springfield OR 33:27.0 32:48.1 10:34 221 782 63
26 558 854 Tayler Perez F 26 F2529 Springfield OR 33:21.1 32:50.7 10:35 222 782 63
27 571 535 Kirsten Ibrao F 28 F2529 Springfield OR 35:04.5 33:24.4 10:46 232 782 63
28 592 1388 Anastasia Pabst F 28 F2529 Eugene OR 37:15.9 34:09.5 11:00 243 782 63
29 598 996 Josie Seigler F 25 F2529 Murrieta CA 36:21.7 34:19.6 11:03 246 782 63
30 605 1187 Erica Wiebelhaus F 25 F2529 Dallas OR 35:52.8 34:40.2 11:10 250 782 63
31 607 936 Amanda Roberts F 29 F2529 Troy ID 36:11.7 34:46.6 11:12 252 782 63
32 608 842 Micah Paudois F 25 F2529 Springfield OR 37:35.5 34:48.8 11:13 253 782 63
33 609 695 Shelby Masterson F 27 F2529 Springfield OR 37:00.3 34:50.3 11:13 254 782 63
34 644 371 Sarah Goddard-Trenholm F 29 F2529 Springfield OR 37:31.4 36:30.9 11:46 277 782 63
35 666 1373 Jessica Clark F 28 F2529 Springfield OR 40:15.2 37:15.6 12:00 293 782 63
36 679 144 Shelby Campbell F 26 F2529 Portland OR 38:54.6 37:38.0 12:07 301 782 63
37 694 657 Alicia Long F 28 F2529 Springfield OR 38:49.6 37:56.4 12:13 309 782 63
38 724 61 Bryttnee Bauer F 29 F2529 Springfield OR 41:08.3 38:52.7 12:31 326 782 63
39 745 1314 Niki Lamborn F 28 F2529 Pleasant Hill OR 40:55.8 39:29.2 12:43 344 782 63
40 757 1419 Katie Moi F 26 F2529 Eugene OR 41:35.0 40:03.0 12:54 351 782 63
41 768 373 Ally Goertzen F 26 F2529 Springfield OR 43:48.1 40:26.9 13:02 359 782 63
42 786 798 Janelle Neustel F 29 F2529 Sherwood OR 42:27.0 41:23.6 13:20 371 782 63
43 865 1293 Courtney Jarvis F 29 F2529 Eugene OR 47:20.5 45:22.5 14:37 420 782 63
44 876 174 Britany Clingenpeel F 26 F2529 Springfield OR 49:57.4 45:34.7 14:41 428 782 63
45 1002 1131 Stephanie Varela F 29 F2529 Cottage Grove OR 52:51.8 50:32.8 16:17 514 782 63
46 1030 761 Noelle Moen F 26 F2529 Coburg OR 53:31.3 51:57.8 16:44 534 782 63
47 1050 308 Lene Ferrari F 25 F2529 Springfield OR 56:00.2 52:27.9 16:54 546 782 63
48 1100 492 Katie Hoechlin F 26 F2529 Albany OR 55:58.2 53:32.3 17:14 582 782 63
49 1101 1392 Kaitlyn Numes-Lacnamie F 26 F2529 Harrisburg OR 56:13.6 53:35.8 17:16 583 782 63
50 1156 1116 Courtnie Truebe F 29 F2529 Springfield OR 1:00:01.4 55:17.3 17:48 611 782 63
51 1205 969 Josie Saylor F 25 F2529 Beaverton OR 1:00:44.8 57:47.4 18:37 647 782 63
52 1217 57 Chelsea Baszler F 25 F2529 Springfield OR 1:00:29.4 58:41.2 18:54 655 782 63
53 1238 207 Brooke Crawford F 28 F2529 Eugene OR 1:04:01.4 1:00:23.5 19:27 670 782 63
54 1258 1217 Sarah Wyckoff F 29 F2529 Eugene OR 1:06:26.5 1:04:52.0 20:53 679 782 63
55 1259 890 Heather Pridgen F 27 F2529 Eugene OR 1:06:26.6 1:04:52.7 20:53 680 782 63

Division Results for the F3034

Sort by  Gun Time Net Time
Div Place Place Bib First Last Sex Age Div City State Gun Time Net Time Pace Sex Place Sex Total Div Total
1 156 115 Crislyn Everall F 30 F3034 Springfield OR 25:40.2 23:54.7 7:42 31 782 69
2 245 465 Lindsey Hayward F 33 F3034 Eugene OR 26:36.1 26:04.0 8:24 63 782 69
3 252 1015 Cristina Sierra F 34 F3034 Eugene OR 26:54.1 26:15.6 8:28 66 782 69
4 268 165 Denise Chin F 31 F3034 Shoreline WA 27:21.5 26:43.2 8:37 73 782 69
5 281 514 Andrea Huntoon F 32 F3034 Springfield OR 27:53.9 27:12.7 8:46 80 782 69
6 282 342 Sara Garfinkel F 30 F3034 Springfield OR 27:43.8 27:13.1 8:46 81 782 69
7 326 841 Naomi Passarelli F 33 F3034 Springfield OR 32:45.9 28:05.3 9:03 105 782 69
8 337 888 Jennifer Prenevost F 33 F3034 Springfield OR 30:02.5 28:21.0 9:08 108 782 69
9 339 209 Stephanie Crownover F 33 F3034 Springfield OR 29:07.1 28:22.1 9:08 109 782 69
10 346 1210 Jessica Wolpe F 32 F3034 Springfield OR 31:40.2 28:26.8 9:10 114 782 69
11 350 390 Kayla Gottfried F 31 F3034 Pleasant Hill OR 31:42.5 28:29.4 9:11 116 782 69
12 353 528 Alexandra Hvass F 30 F3034 Springfield OR 30:45.0 28:31.6 9:11 117 782 69
13 357 1235 Erin Weigandt F 33 F3034 Springfield OR 29:47.6 28:36.8 9:13 119 782 69
14 358 669 Solange Mainard F 34 F3034 Springfield OR 29:47.7 28:37.2 9:13 120 782 69
15 370 20 Robyn Anderson F 34 F3034 Springfield OR 30:27.5 28:58.1 9:20 127 782 69
16 400 1376 Elena Delgado F 30 F3034 Eugene OR 30:28.6 29:24.4 9:28 138 782 69
17 417 277 Amy Ehrhart F 31 F3034 Springfield OR 30:42.9 29:38.1 9:33 145 782 69
18 456 881 Bailey Pope F 32 F3034 Beaverton OR 30:40.3 30:15.8 9:45 165 782 69
19 457 101 Laurin Bradley F 33 F3034 Springfield OR 31:11.6 30:15.8 9:45 166 782 69
20 461 1199 Jennifer Williams F 32 F3034 Springfield OR 34:39.2 30:19.6 9:46 170 782 69
21 514 23 Devon Annalora F 32 F3034 Eugene OR 32:58.2 31:52.1 10:16 197 782 69
22 519 2 Lindsey Adkisson F 34 F3034 Eugene OR 34:49.4 31:53.7 10:16 201 782 69
23 520 604 Elena Kuhnhenn F 31 F3034 Eugene OR 33:23.0 31:53.7 10:16 202 782 69
24 524 521 Cassondra Hustrulid F 32 F3034 Springfield OR 34:29.0 32:01.1 10:19 203 782 69
25 562 313 Carolyn Fish F 33 F3034 Springfield OR 34:14.7 32:55.2 10:36 225 782 69
26 572 581 Amber Kerber F 32 F3034 Salem OR 35:04.8 33:24.7 10:46 233 782 69
27 591 1384 Kaylynn Thomas F 33 F3034 Springfield OR 37:16.8 34:08.2 11:00 242 782 69
28 597 1386 Samantha Brelsford F 32 F3034 Eugene OR 37:25.1 34:19.4 11:03 245 782 69
29 613 349 Nicole Geeting F 31 F3034 Brownsville OR 39:20.6 35:07.4 11:19 258 782 69
30 619 1101 Remember Theah F 33 F3034 Springfield OR 37:04.8 35:18.4 11:22 262 782 69
31 636 1414 Patricia Labrynth F 34 F3034 Springfield OR 37:30.9 36:08.9 11:39 272 782 69
32 662 120 Sarah Bruce F 31 F3034 Eugene OR 38:20.0 37:13.4 11:59 289 782 69
33 663 1389 Alicia Menge F 33 F3034 Eugene OR 40:05.6 37:13.8 11:59 290 782 69
34 664 249 Corilynn Dodson F 33 F3034 Creswell OR 39:03.6 37:14.6 12:00 291 782 69
35 671 1168 Sarah Wernecke F 32 F3034 Springfield OR 40:24.9 37:21.7 12:02 296 782 69
36 717 536 Amy Ireland F 32 F3034 Springfield OR 41:32.3 38:47.2 12:30 321 782 69
37 731 191 Kaissi Collins F 32 F3034 Springfield OR 39:44.4 39:00.3 12:34 332 782 69
38 772 529 Amanda Hvass F 34 F3034 Eugene OR 42:52.4 40:37.6 13:05 362 782 69
39 808 1238 Cara Kitchens F 34 F3034 Coburg OR 42:57.9 41:58.6 13:31 387 782 69
40 878 74 Corina Black F 34 F3034 Creswell OR 50:02.2 45:38.6 14:42 429 782 69
41 908 682 Lindsay Marchant F 33 F3034 Springfield OR 49:19.8 47:29.3 15:18 446 782 69
42 950 829 Courtney Otto F 32 F3034 Springfield